SWA1140 KBNA-KIND
Flight info
| Callsign | SWA1140 |
|---|---|
| Flight time | 0h 46m |
| Altitude | 31000 |
| Route | KRSTA4 OLSIE HAGAL GIIBS4 |
| Aircraft | B738/M-VGDW/C |
Departure
| Time | 2026-05-05 20:04 |
|---|---|
| Airport | Nashville International Airport (KBNA) |
Arrival
| Time | 2026-05-05 20:50 |
|---|---|
| Airport | Indianapolis International Airport (KIND) |
| Time | Latitude | Longitude | Altitude | Speed | Heading |
|---|---|---|---|---|---|
| 2026-05-05 19:42 | 36.12859 | -86.66919 | 609 ft | 0 kts | 254° |
| 2026-05-05 19:55 | 36.12860 | -86.66915 | 608 ft | 2 kts | 250° |
| 2026-05-05 19:55 | 36.12864 | -86.66904 | 608 ft | 1 kts | 249° |
| 2026-05-05 19:55 | 36.12870 | -86.66888 | 608 ft | 2 kts | 218° |
| 2026-05-05 19:55 | 36.12883 | -86.66881 | 609 ft | 2 kts | 185° |
| 2026-05-05 19:56 | 36.12894 | -86.66882 | 608 ft | 2 kts | 159° |
| 2026-05-05 19:56 | 36.12906 | -86.66891 | 609 ft | 1 kts | 124° |
| 2026-05-05 19:56 | 36.12908 | -86.66896 | 609 ft | 0 kts | 130° |
| 2026-05-05 19:58 | 36.12907 | -86.66894 | 608 ft | 2 kts | 130° |
| 2026-05-05 19:59 | 36.12857 | -86.66824 | 608 ft | 18 kts | 133° |
| 2026-05-05 19:59 | 36.12763 | -86.66775 | 608 ft | 14 kts | 214° |
| 2026-05-05 19:59 | 36.12688 | -86.66851 | 608 ft | 13 kts | 220° |
| 2026-05-05 19:59 | 36.12612 | -86.66939 | 609 ft | 16 kts | 248° |
| 2026-05-05 20:00 | 36.12657 | -86.67052 | 608 ft | 15 kts | 315° |
| 2026-05-05 20:00 | 36.12727 | -86.67145 | 608 ft | 14 kts | 311° |
| 2026-05-05 20:00 | 36.12799 | -86.67239 | 608 ft | 14 kts | 320° |
| 2026-05-05 20:00 | 36.12802 | -86.67328 | 609 ft | 10 kts | 231° |
| 2026-05-05 20:01 | 36.12746 | -86.67395 | 609 ft | 13 kts | 222° |
| 2026-05-05 20:01 | 36.12670 | -86.67461 | 609 ft | 12 kts | 208° |
| 2026-05-05 20:01 | 36.12587 | -86.67523 | 609 ft | 14 kts | 222° |
| 2026-05-05 20:01 | 36.12503 | -86.67619 | 609 ft | 15 kts | 222° |
| 2026-05-05 20:02 | 36.12412 | -86.67685 | 609 ft | 15 kts | 200° |
| 2026-05-05 20:02 | 36.12357 | -86.67735 | 609 ft | 6 kts | 270° |
| 2026-05-05 20:02 | 36.12374 | -86.67821 | 609 ft | 14 kts | 287° |
| 2026-05-05 20:02 | 36.12398 | -86.67931 | 609 ft | 12 kts | 268° |
| 2026-05-05 20:03 | 36.12328 | -86.67998 | 609 ft | 15 kts | 197° |
| 2026-05-05 20:03 | 36.12205 | -86.68045 | 609 ft | 23 kts | 197° |
| 2026-05-05 20:03 | 36.11801 | -86.68208 | 609 ft | 110 kts | 197° |
| 2026-05-05 20:03 | 36.10815 | -86.68613 | 915 ft | 171 kts | 196° |
| 2026-05-05 20:04 | 36.09695 | -86.69030 | 2039 ft | 175 kts | 197° |
| 2026-05-05 20:04 | 36.08650 | -86.69822 | 2813 ft | 193 kts | 225° |
| 2026-05-05 20:04 | 36.08078 | -86.71351 | 3504 ft | 206 kts | 249° |
| 2026-05-05 20:04 | 36.07701 | -86.73053 | 4182 ft | 206 kts | 248° |
| 2026-05-05 20:05 | 36.07255 | -86.74706 | 4861 ft | 205 kts | 246° |
| 2026-05-05 20:05 | 36.06786 | -86.76366 | 5538 ft | 206 kts | 249° |
| 2026-05-05 20:05 | 36.06649 | -86.78153 | 6007 ft | 217 kts | 271° |
| 2026-05-05 20:05 | 36.07033 | -86.79971 | 6119 ft | 222 kts | 282° |
| 2026-05-05 20:06 | 36.07505 | -86.81773 | 6117 ft | 217 kts | 281° |
| 2026-05-05 20:06 | 36.07936 | -86.83570 | 6119 ft | 222 kts | 281° |
| 2026-05-05 20:06 | 36.08614 | -86.85377 | 6227 ft | 243 kts | 299° |
| 2026-05-05 20:06 | 36.09961 | -86.86675 | 6670 ft | 260 kts | 329° |
| 2026-05-05 20:07 | 36.11783 | -86.87138 | 7207 ft | 274 kts | 353° |
| 2026-05-05 20:07 | 36.13709 | -86.86860 | 7745 ft | 283 kts | 7° |
| 2026-05-05 20:07 | 36.15628 | -86.86291 | 8276 ft | 293 kts | 10° |
| 2026-05-05 20:07 | 36.17631 | -86.85656 | 8799 ft | 296 kts | 10° |
| 2026-05-05 20:08 | 36.19605 | -86.85045 | 9329 ft | 296 kts | 9° |
| 2026-05-05 20:08 | 36.21618 | -86.84444 | 9866 ft | 298 kts | 8° |
| 2026-05-05 20:08 | 36.23629 | -86.83855 | 10409 ft | 296 kts | 8° |
| 2026-05-05 20:08 | 36.25628 | -86.83274 | 10942 ft | 298 kts | 8° |
| 2026-05-05 20:09 | 36.27676 | -86.82681 | 11473 ft | 305 kts | 8° |
| 2026-05-05 20:09 | 36.29809 | -86.82073 | 12009 ft | 327 kts | 7° |
| 2026-05-05 20:09 | 36.32087 | -86.81386 | 12566 ft | 350 kts | 11° |
| 2026-05-05 20:09 | 36.34385 | -86.80143 | 13108 ft | 377 kts | 28° |
| 2026-05-05 20:10 | 36.36438 | -86.77986 | 13658 ft | 400 kts | 41° |
| 2026-05-05 20:10 | 36.38375 | -86.75388 | 14202 ft | 417 kts | 45° |
| 2026-05-05 20:10 | 36.40273 | -86.72652 | 14737 ft | 424 kts | 46° |
| 2026-05-05 20:10 | 36.42173 | -86.69871 | 15270 ft | 429 kts | 46° |
| 2026-05-05 20:11 | 36.44113 | -86.67055 | 15805 ft | 432 kts | 45° |
| 2026-05-05 20:11 | 36.46094 | -86.64219 | 16355 ft | 437 kts | 45° |
| 2026-05-05 20:11 | 36.48104 | -86.61373 | 16888 ft | 441 kts | 44° |
| 2026-05-05 20:11 | 36.50137 | -86.58511 | 17435 ft | 444 kts | 44° |
| 2026-05-05 20:12 | 36.52195 | -86.55623 | 17971 ft | 448 kts | 44° |
| 2026-05-05 20:12 | 36.54261 | -86.52736 | 18502 ft | 452 kts | 43° |
| 2026-05-05 20:12 | 36.56427 | -86.49881 | 19036 ft | 453 kts | 39° |
| 2026-05-05 20:12 | 36.58787 | -86.47325 | 19565 ft | 453 kts | 31° |
| 2026-05-05 20:13 | 36.61455 | -86.45238 | 20102 ft | 449 kts | 21° |
| 2026-05-05 20:13 | 36.64284 | -86.43578 | 20634 ft | 449 kts | 16° |
| 2026-05-05 20:13 | 36.67172 | -86.42142 | 21161 ft | 451 kts | 13° |
| 2026-05-05 20:13 | 36.70122 | -86.40767 | 21691 ft | 453 kts | 13° |
| 2026-05-05 20:14 | 36.73097 | -86.39386 | 22221 ft | 459 kts | 13° |
| 2026-05-05 20:14 | 36.76044 | -86.37852 | 22750 ft | 466 kts | 17° |
| 2026-05-05 20:14 | 36.79005 | -86.36096 | 23298 ft | 472 kts | 18° |
| 2026-05-05 20:14 | 36.81939 | -86.34229 | 23859 ft | 476 kts | 20° |
| 2026-05-05 20:15 | 36.84874 | -86.32304 | 24421 ft | 480 kts | 20° |
| 2026-05-05 20:15 | 36.87822 | -86.30352 | 24980 ft | 484 kts | 20° |
| 2026-05-05 20:15 | 36.90779 | -86.28390 | 25539 ft | 486 kts | 20° |
| 2026-05-05 20:15 | 36.93771 | -86.26407 | 26103 ft | 489 kts | 20° |
| 2026-05-05 20:16 | 36.96769 | -86.24425 | 26663 ft | 487 kts | 19° |
| 2026-05-05 20:16 | 36.99748 | -86.22456 | 27229 ft | 484 kts | 19° |
| 2026-05-05 20:16 | 37.02730 | -86.20493 | 27797 ft | 481 kts | 19° |
| 2026-05-05 20:16 | 37.05661 | -86.18564 | 28360 ft | 479 kts | 19° |
| 2026-05-05 20:17 | 37.08586 | -86.16644 | 28927 ft | 477 kts | 18° |
| 2026-05-05 20:17 | 37.11536 | -86.14715 | 29504 ft | 478 kts | 18° |
| 2026-05-05 20:17 | 37.14475 | -86.12794 | 30053 ft | 478 kts | 18° |
| 2026-05-05 20:17 | 37.17438 | -86.10854 | 30609 ft | 476 kts | 17° |
| 2026-05-05 20:18 | 37.20347 | -86.08949 | 30832 ft | 478 kts | 17° |
| 2026-05-05 20:18 | 37.26321 | -86.05299 | 30859 ft | 465 kts | 13° |
| 2026-05-05 20:19 | 37.32279 | -86.02286 | 30859 ft | 461 kts | 11° |
| 2026-05-05 20:19 | 37.38309 | -85.99400 | 30853 ft | 464 kts | 11° |
| 2026-05-05 20:20 | 37.44329 | -85.96480 | 30856 ft | 464 kts | 11° |
| 2026-05-05 20:20 | 37.50336 | -85.93518 | 30857 ft | 463 kts | 11° |
| 2026-05-05 20:21 | 37.56330 | -85.90531 | 30857 ft | 463 kts | 11° |
| 2026-05-05 20:21 | 37.62312 | -85.87530 | 30859 ft | 461 kts | 11° |
| 2026-05-05 20:22 | 37.68305 | -85.84524 | 30786 ft | 470 kts | 11° |
| 2026-05-05 20:22 | 37.71373 | -85.82992 | 30496 ft | 478 kts | 12° |
| 2026-05-05 20:22 | 37.74474 | -85.81438 | 30191 ft | 477 kts | 12° |
| 2026-05-05 20:22 | 37.77537 | -85.79893 | 29877 ft | 479 kts | 12° |
| 2026-05-05 20:23 | 37.80651 | -85.78317 | 29556 ft | 482 kts | 12° |
| 2026-05-05 20:23 | 37.83718 | -85.76766 | 29231 ft | 482 kts | 12° |
| 2026-05-05 20:23 | 37.86860 | -85.75177 | 28902 ft | 483 kts | 13° |
| 2026-05-05 20:23 | 37.89944 | -85.73604 | 28578 ft | 483 kts | 13° |
| 2026-05-05 20:24 | 37.93058 | -85.71995 | 28247 ft | 486 kts | 13° |
| 2026-05-05 20:24 | 37.96156 | -85.70406 | 27928 ft | 488 kts | 13° |
| 2026-05-05 20:24 | 37.99291 | -85.68797 | 27593 ft | 488 kts | 13° |
| 2026-05-05 20:24 | 38.02441 | -85.67198 | 27270 ft | 488 kts | 13° |
| 2026-05-05 20:25 | 38.05625 | -85.65587 | 26934 ft | 489 kts | 13° |
| 2026-05-05 20:25 | 38.08772 | -85.63995 | 26621 ft | 492 kts | 13° |
| 2026-05-05 20:25 | 38.11971 | -85.62380 | 26288 ft | 494 kts | 13° |
| 2026-05-05 20:25 | 38.15146 | -85.60860 | 25965 ft | 492 kts | 11° |
| 2026-05-05 20:26 | 38.18407 | -85.59741 | 25639 ft | 484 kts | 3° |
| 2026-05-05 20:26 | 38.21737 | -85.59244 | 25305 ft | 476 kts | 354° |
| 2026-05-05 20:26 | 38.25034 | -85.59320 | 24981 ft | 467 kts | 348° |
| 2026-05-05 20:26 | 38.28201 | -85.59716 | 24664 ft | 463 kts | 345° |
| 2026-05-05 20:27 | 38.31387 | -85.60272 | 24338 ft | 461 kts | 344° |
| 2026-05-05 20:27 | 38.34565 | -85.60880 | 24002 ft | 460 kts | 344° |
| 2026-05-05 20:27 | 38.37725 | -85.61477 | 23870 ft | 456 kts | 344° |
| 2026-05-05 20:27 | 38.40865 | -85.62049 | 23703 ft | 460 kts | 345° |
| 2026-05-05 20:28 | 38.44024 | -85.62604 | 23344 ft | 457 kts | 345° |
| 2026-05-05 20:28 | 38.47132 | -85.63119 | 22944 ft | 445 kts | 345° |
| 2026-05-05 20:28 | 38.50199 | -85.63607 | 22552 ft | 437 kts | 346° |
| 2026-05-05 20:28 | 38.53176 | -85.64074 | 22208 ft | 433 kts | 346° |
| 2026-05-05 20:29 | 38.56182 | -85.64547 | 21862 ft | 435 kts | 346° |
| 2026-05-05 20:29 | 38.59149 | -85.65011 | 21522 ft | 435 kts | 346° |
| 2026-05-05 20:29 | 38.62166 | -85.65467 | 21187 ft | 432 kts | 346° |
| 2026-05-05 20:29 | 38.65131 | -85.65905 | 20853 ft | 430 kts | 346° |
| 2026-05-05 20:30 | 38.68097 | -85.66341 | 20506 ft | 429 kts | 347° |
| 2026-05-05 20:30 | 38.71043 | -85.66773 | 20166 ft | 427 kts | 347° |
| 2026-05-05 20:30 | 38.73985 | -85.67202 | 19804 ft | 425 kts | 347° |
| 2026-05-05 20:30 | 38.76929 | -85.67635 | 19418 ft | 425 kts | 347° |
| 2026-05-05 20:31 | 38.79842 | -85.68063 | 19041 ft | 421 kts | 347° |
| 2026-05-05 20:31 | 38.82737 | -85.68488 | 18652 ft | 420 kts | 347° |
| 2026-05-05 20:31 | 38.85640 | -85.68918 | 18254 ft | 418 kts | 347° |
| 2026-05-05 20:31 | 38.88504 | -85.69339 | 17853 ft | 407 kts | 347° |
| 2026-05-05 20:32 | 38.91277 | -85.69744 | 17474 ft | 397 kts | 347° |
| 2026-05-05 20:32 | 38.93982 | -85.70140 | 17079 ft | 388 kts | 347° |
| 2026-05-05 20:32 | 38.96610 | -85.70526 | 16693 ft | 379 kts | 347° |
| 2026-05-05 20:32 | 38.99205 | -85.70914 | 16312 ft | 371 kts | 347° |
| 2026-05-05 20:33 | 39.01761 | -85.71304 | 15923 ft | 363 kts | 346° |
| 2026-05-05 20:33 | 39.04230 | -85.71699 | 15538 ft | 357 kts | 346° |
| 2026-05-05 20:33 | 39.06669 | -85.72118 | 15150 ft | 353 kts | 345° |
| 2026-05-05 20:33 | 39.09093 | -85.72564 | 14789 ft | 351 kts | 345° |
| 2026-05-05 20:34 | 39.11496 | -85.73010 | 14519 ft | 348 kts | 345° |
| 2026-05-05 20:34 | 39.13879 | -85.73521 | 14311 ft | 347 kts | 341° |
| 2026-05-05 20:34 | 39.16201 | -85.74342 | 14096 ft | 343 kts | 335° |
| 2026-05-05 20:34 | 39.18431 | -85.75419 | 13871 ft | 338 kts | 331° |
| 2026-05-05 20:35 | 39.20575 | -85.76614 | 13654 ft | 336 kts | 329° |
| 2026-05-05 20:35 | 39.22705 | -85.77869 | 13435 ft | 335 kts | 329° |
| 2026-05-05 20:35 | 39.24807 | -85.79110 | 13283 ft | 333 kts | 329° |
| 2026-05-05 20:35 | 39.26918 | -85.80346 | 13139 ft | 334 kts | 329° |
| 2026-05-05 20:36 | 39.29027 | -85.81570 | 13031 ft | 332 kts | 329° |
| 2026-05-05 20:36 | 39.31126 | -85.82780 | 13010 ft | 334 kts | 329° |
| 2026-05-05 20:36 | 39.33216 | -85.84102 | 13003 ft | 328 kts | 323° |
| 2026-05-05 20:36 | 39.35052 | -85.85697 | 12999 ft | 308 kts | 316° |
| 2026-05-05 20:37 | 39.36665 | -85.87382 | 12856 ft | 295 kts | 313° |
| 2026-05-05 20:37 | 39.37702 | -85.88529 | 12658 ft | 291 kts | 313° |
| 2026-05-05 20:37 | 39.39719 | -85.90756 | 12276 ft | 284 kts | 313° |
| 2026-05-05 20:37 | 39.41237 | -85.92388 | 11983 ft | 282 kts | 313° |
| 2026-05-05 20:38 | 39.42750 | -85.93989 | 11651 ft | 284 kts | 314° |
| 2026-05-05 20:38 | 39.44286 | -85.95599 | 11248 ft | 284 kts | 314° |
| 2026-05-05 20:38 | 39.45771 | -85.97259 | 10831 ft | 280 kts | 308° |
| 2026-05-05 20:38 | 39.46909 | -85.99224 | 10417 ft | 272 kts | 294° |
| 2026-05-05 20:39 | 39.47700 | -86.01415 | 10031 ft | 267 kts | 288° |
| 2026-05-05 20:39 | 39.48407 | -86.03641 | 9659 ft | 265 kts | 288° |
| 2026-05-05 20:39 | 39.49133 | -86.05810 | 9302 ft | 263 kts | 290° |
| 2026-05-05 20:39 | 39.49893 | -86.07951 | 8981 ft | 260 kts | 290° |
| 2026-05-05 20:40 | 39.50661 | -86.10055 | 8661 ft | 258 kts | 290° |
| 2026-05-05 20:40 | 39.51411 | -86.12114 | 8341 ft | 255 kts | 290° |
| 2026-05-05 20:40 | 39.52161 | -86.14192 | 8017 ft | 253 kts | 289° |
| 2026-05-05 20:40 | 39.52901 | -86.16256 | 7693 ft | 251 kts | 290° |
| 2026-05-05 20:41 | 39.53626 | -86.18275 | 7372 ft | 249 kts | 290° |
| 2026-05-05 20:41 | 39.54352 | -86.20290 | 7049 ft | 248 kts | 290° |
| 2026-05-05 20:41 | 39.55073 | -86.22294 | 6733 ft | 246 kts | 290° |
| 2026-05-05 20:41 | 39.55796 | -86.24310 | 6409 ft | 245 kts | 290° |
| 2026-05-05 20:42 | 39.56509 | -86.26296 | 6095 ft | 244 kts | 291° |
| 2026-05-05 20:42 | 39.57212 | -86.28239 | 5993 ft | 233 kts | 291° |
| 2026-05-05 20:42 | 39.57874 | -86.30094 | 5989 ft | 222 kts | 291° |
| 2026-05-05 20:42 | 39.58505 | -86.31873 | 5997 ft | 216 kts | 288° |
| 2026-05-05 20:43 | 39.58769 | -86.33755 | 6000 ft | 212 kts | 260° |
| 2026-05-05 20:43 | 39.58243 | -86.35519 | 6023 ft | 211 kts | 236° |
| 2026-05-05 20:43 | 39.57314 | -86.36956 | 6004 ft | 209 kts | 227° |
| 2026-05-05 20:43 | 39.56283 | -86.38301 | 5918 ft | 210 kts | 226° |
| 2026-05-05 20:44 | 39.55254 | -86.39619 | 5812 ft | 200 kts | 226° |
| 2026-05-05 20:44 | 39.54292 | -86.40889 | 5575 ft | 200 kts | 227° |
| 2026-05-05 20:44 | 39.53320 | -86.42256 | 5143 ft | 209 kts | 236° |
| 2026-05-05 20:44 | 39.52947 | -86.43950 | 4962 ft | 195 kts | 274° |
| 2026-05-05 20:45 | 39.53978 | -86.47209 | 4948 ft | 204 kts | 300° |
| 2026-05-05 20:45 | 39.55052 | -86.48477 | 4684 ft | 213 kts | 330° |
| 2026-05-05 20:45 | 39.56506 | -86.48763 | 4340 ft | 216 kts | 4° |
| 2026-05-05 20:46 | 39.57910 | -86.48161 | 4047 ft | 213 kts | 25° |
| 2026-05-05 20:46 | 39.59074 | -86.47057 | 3981 ft | 201 kts | 40° |
| 2026-05-05 20:46 | 39.60052 | -86.45782 | 3992 ft | 200 kts | 43° |
| 2026-05-05 20:46 | 39.61015 | -86.44506 | 3967 ft | 196 kts | 42° |
| 2026-05-05 20:47 | 39.61973 | -86.43254 | 3851 ft | 196 kts | 41° |
| 2026-05-05 20:47 | 39.62958 | -86.42006 | 3436 ft | 201 kts | 39° |
| 2026-05-05 20:47 | 39.63978 | -86.40741 | 2891 ft | 208 kts | 40° |
| 2026-05-05 20:47 | 39.64984 | -86.39451 | 2604 ft | 196 kts | 41° |
| 2026-05-05 20:48 | 39.65923 | -86.38253 | 2248 ft | 184 kts | 38° |
| 2026-05-05 20:48 | 39.66857 | -86.37159 | 1737 ft | 182 kts | 39° |
| 2026-05-05 20:48 | 39.67731 | -86.36080 | 1425 ft | 167 kts | 41° |
| 2026-05-05 20:48 | 39.68512 | -86.35063 | 1207 ft | 156 kts | 43° |
| 2026-05-05 20:49 | 39.69229 | -86.33979 | 1170 ft | 156 kts | 51° |
| 2026-05-05 20:49 | 39.69933 | -86.32967 | 999 ft | 146 kts | 42° |
| 2026-05-05 20:49 | 39.70639 | -86.32077 | 795 ft | 134 kts | 42° |
| 2026-05-05 20:49 | 39.71232 | -86.31334 | 748 ft | 93 kts | 44° |
| 2026-05-05 20:50 | 39.71580 | -86.30885 | 756 ft | 55 kts | 45° |
| 2026-05-05 20:50 | 39.71761 | -86.30653 | 758 ft | 58 kts | 45° |
| 2026-05-05 20:50 | 39.71977 | -86.30244 | 766 ft | 25 kts | 94° |
| 2026-05-05 20:50 | 39.71949 | -86.30074 | 769 ft | 14 kts | 129° |
| 2026-05-05 20:51 | 39.71864 | -86.29958 | 771 ft | 20 kts | 134° |
| 2026-05-05 20:51 | 39.71774 | -86.29839 | 774 ft | 14 kts | 129° |
| 2026-05-05 20:51 | 39.71748 | -86.29797 | 774 ft | 0 kts | 131° |